sensor_id;sensor_type;location;lat;lon;timestamp;temperature;humidity
23499;DHT22;11926;48.120;11.562;2023-04-25T00:01:37;8.40;88.70
23499;DHT22;11926;48.120;11.562;2023-04-25T00:04:26;8.40;88.80
23499;DHT22;11926;48.120;11.562;2023-04-25T00:07:24;8.40;88.70
23499;DHT22;11926;48.120;11.562;2023-04-25T00:10:13;8.40;88.60
23499;DHT22;11926;48.120;11.562;2023-04-25T00:13:07;8.50;88.70
23499;DHT22;11926;48.120;11.562;2023-04-25T00:16:02;8.50;88.70
23499;DHT22;11926;48.120;11.562;2023-04-25T00:18:57;8.50;88.70
23499;DHT22;11926;48.120;11.562;2023-04-25T00:21:46;8.50;88.80
23499;DHT22;11926;48.120;11.562;2023-04-25T00:24:39;8.60;88.70
23499;DHT22;11926;48.120;11.562;2023-04-25T00:27:31;8.60;88.80
23499;DHT22;11926;48.120;11.562;2023-04-25T00:30:26;8.60;88.90
23499;DHT22;11926;48.120;11.562;2023-04-25T00:33:16;8.70;88.90
23499;DHT22;11926;48.120;11.562;2023-04-25T00:36:06;8.70;88.80
23499;DHT22;11926;48.120;11.562;2023-04-25T00:39:01;8.70;88.80
23499;DHT22;11926;48.120;11.562;2023-04-25T00:41:54;8.70;88.70
23499;DHT22;11926;48.120;11.562;2023-04-25T00:44:47;8.60;88.50
23499;DHT22;11926;48.120;11.562;2023-04-25T00:47:40;8.60;88.50
23499;DHT22;11926;48.120;11.562;2023-04-25T00:50:33;8.50;88.60
23499;DHT22;11926;48.120;11.562;2023-04-25T00:53:23;8.50;88.70
23499;DHT22;11926;48.120;11.562;2023-04-25T00:56:13;8.40;88.70
23499;DHT22;11926;48.120;11.562;2023-04-25T00:59:13;8.40;88.80
23499;DHT22;11926;48.120;11.562;2023-04-25T01:02:02;8.30;88.80
23499;DHT22;11926;48.120;11.562;2023-04-25T01:04:53;8.30;88.70
23499;DHT22;11926;48.120;11.562;2023-04-25T01:07:48;8.20;88.80
23499;DHT22;11926;48.120;11.562;2023-04-25T01:10:39;8.20;89.10
23499;DHT22;11926;48.120;11.562;2023-04-25T01:13:31;8.10;89.10
23499;DHT22;11926;48.120;11.562;2023-04-25T01:16:22;8.10;89.30
23499;DHT22;11926;48.120;11.562;2023-04-25T01:19:19;8.10;89.40
23499;DHT22;11926;48.120;11.562;2023-04-25T01:22:12;8.10;89.40
23499;DHT22;11926;48.120;11.562;2023-04-25T01:25:02;8.10;89.40
23499;DHT22;11926;48.120;11.562;2023-04-25T01:27:51;8.00;89.60
23499;DHT22;11926;48.120;11.562;2023-04-25T01:30:41;8.00;89.60
23499;DHT22;11926;48.120;11.562;2023-04-25T01:33:33;8.00;89.80
23499;DHT22;11926;48.120;11.562;2023-04-25T01:36:24;7.90;89.80
23499;DHT22;11926;48.120;11.562;2023-04-25T01:39:15;7.90;89.80
23499;DHT22;11926;48.120;11.562;2023-04-25T01:42:07;7.90;89.80
23499;DHT22;11926;48.120;11.562;2023-04-25T01:44:58;7.90;89.90
23499;DHT22;11926;48.120;11.562;2023-04-25T01:47:51;7.90;90.00
23499;DHT22;11926;48.120;11.562;2023-04-25T01:50:45;7.80;89.90
23499;DHT22;11926;48.120;11.562;2023-04-25T01:53:39;7.70;90.00
23499;DHT22;11926;48.120;11.562;2023-04-25T01:56:32;7.70;90.00
23499;DHT22;11926;48.120;11.562;2023-04-25T01:59:23;7.60;90.00
23499;DHT22;11926;48.120;11.562;2023-04-25T02:02:23;7.50;90.10
23499;DHT22;11926;48.120;11.562;2023-04-25T02:05:13;7.40;90.20
23499;DHT22;11926;48.120;11.562;2023-04-25T02:08:06;7.40;90.20
23499;DHT22;11926;48.120;11.562;2023-04-25T02:10:54;7.40;90.30
23499;DHT22;11926;48.120;11.562;2023-04-25T02:13:50;7.40;90.30
23499;DHT22;11926;48.120;11.562;2023-04-25T02:16:59;7.30;90.40
23499;DHT22;11926;48.120;11.562;2023-04-25T02:19:52;7.20;90.40
23499;DHT22;11926;48.120;11.562;2023-04-25T02:22:40;7.20;90.40
23499;DHT22;11926;48.120;11.562;2023-04-25T02:25:32;7.10;90.50
23499;DHT22;11926;48.120;11.562;2023-04-25T02:28:23;7.10;90.60
23499;DHT22;11926;48.120;11.562;2023-04-25T02:31:19;7.10;90.70
23499;DHT22;11926;48.120;11.562;2023-04-25T02:34:09;7.10;91.10
23499;DHT22;11926;48.120;11.562;2023-04-25T02:37:01;7.10;90.80
23499;DHT22;11926;48.120;11.562;2023-04-25T02:39:50;7.20;90.80
23499;DHT22;11926;48.120;11.562;2023-04-25T02:42:45;7.20;90.80
23499;DHT22;11926;48.120;11.562;2023-04-25T02:45:41;7.30;90.80
23499;DHT22;11926;48.120;11.562;2023-04-25T02:48:37;7.30;90.80
23499;DHT22;11926;48.120;11.562;2023-04-25T02:51:34;7.30;90.80
23499;DHT22;11926;48.120;11.562;2023-04-25T02:54:25;7.40;90.80
23499;DHT22;11926;48.120;11.562;2023-04-25T02:57:17;7.40;90.80
23499;DHT22;11926;48.120;11.562;2023-04-25T03:00:14;7.50;90.80
23499;DHT22;11926;48.120;11.562;2023-04-25T03:03:04;7.50;90.80
23499;DHT22;11926;48.120;11.562;2023-04-25T03:05:58;7.60;90.80
23499;DHT22;11926;48.120;11.562;2023-04-25T03:08:50;7.60;90.70
23499;DHT22;11926;48.120;11.562;2023-04-25T03:11:39;7.70;90.70
23499;DHT22;11926;48.120;11.562;2023-04-25T03:14:29;7.70;90.60
23499;DHT22;11926;48.120;11.562;2023-04-25T03:17:17;7.80;90.60
23499;DHT22;11926;48.120;11.562;2023-04-25T03:20:09;7.90;90.60
23499;DHT22;11926;48.120;11.562;2023-04-25T03:23:07;7.90;90.60
23499;DHT22;11926;48.120;11.562;2023-04-25T03:25:59;7.90;90.60
23499;DHT22;11926;48.120;11.562;2023-04-25T03:28:51;8.00;90.60
23499;DHT22;11926;48.120;11.562;2023-04-25T03:31:44;8.00;90.60
23499;DHT22;11926;48.120;11.562;2023-04-25T03:34:34;8.00;90.50
23499;DHT22;11926;48.120;11.562;2023-04-25T03:37:28;8.00;90.50
23499;DHT22;11926;48.120;11.562;2023-04-25T03:40:19;8.00;90.50
23499;DHT22;11926;48.120;11.562;2023-04-25T03:43:25;8.00;90.60
23499;DHT22;11926;48.120;11.562;2023-04-25T03:46:19;7.90;90.60
23499;DHT22;11926;48.120;11.562;2023-04-25T03:49:12;7.90;90.60
23499;DHT22;11926;48.120;11.562;2023-04-25T03:52:21;7.90;90.60
23499;DHT22;11926;48.120;11.562;2023-04-25T03:55:15;7.80;90.60
23499;DHT22;11926;48.120;11.562;2023-04-25T03:58:05;7.80;90.70
23499;DHT22;11926;48.120;11.562;2023-04-25T04:00:56;7.80;90.80
23499;DHT22;11926;48.120;11.562;2023-04-25T04:04:00;7.80;90.80
23499;DHT22;11926;48.120;11.562;2023-04-25T04:07:01;7.80;90.80
23499;DHT22;11926;48.120;11.562;2023-04-25T04:09:57;7.80;90.90
23499;DHT22;11926;48.120;11.562;2023-04-25T04:12:52;7.80;90.80
23499;DHT22;11926;48.120;11.562;2023-04-25T04:15:43;7.80;90.80
23499;DHT22;11926;48.120;11.562;2023-04-25T04:18:33;7.80;90.80
23499;DHT22;11926;48.120;11.562;2023-04-25T04:21:25;7.70;90.80
23499;DHT22;11926;48.120;11.562;2023-04-25T04:24:15;7.60;90.90
23499;DHT22;11926;48.120;11.562;2023-04-25T04:27:12;7.60;91.00
23499;DHT22;11926;48.120;11.562;2023-04-25T04:30:11;7.60;91.10
23499;DHT22;11926;48.120;11.562;2023-04-25T04:33:21;7.60;91.20
23499;DHT22;11926;48.120;11.562;2023-04-25T04:36:18;7.70;91.20
23499;DHT22;11926;48.120;11.562;2023-04-25T04:39:12;7.70;91.20
23499;DHT22;11926;48.120;11.562;2023-04-25T04:42:20;7.70;91.20
23499;DHT22;11926;48.120;11.562;2023-04-25T04:45:23;7.80;91.20
23499;DHT22;11926;48.120;11.562;2023-04-25T04:48:46;7.80;91.20
23499;DHT22;11926;48.120;11.562;2023-04-25T04:51:53;7.70;91.20
23499;DHT22;11926;48.120;11.562;2023-04-25T04:54:55;7.80;91.20
23499;DHT22;11926;48.120;11.562;2023-04-25T04:57:55;7.80;91.20
23499;DHT22;11926;48.120;11.562;2023-04-25T05:01:00;7.80;91.20
23499;DHT22;11926;48.120;11.562;2023-04-25T05:04:23;7.80;91.10
23499;DHT22;11926;48.120;11.562;2023-04-25T05:07:35;7.90;91.30
23499;DHT22;11926;48.120;11.562;2023-04-25T05:10:39;8.00;91.30
23499;DHT22;11926;48.120;11.562;2023-04-25T05:13:49;8.00;91.20
23499;DHT22;11926;48.120;11.562;2023-04-25T05:16:57;8.10;91.20
23499;DHT22;11926;48.120;11.562;2023-04-25T05:19:56;8.10;91.10
23499;DHT22;11926;48.120;11.562;2023-04-25T05:23:06;8.10;91.20
23499;DHT22;11926;48.120;11.562;2023-04-25T05:26:17;8.10;91.10
23499;DHT22;11926;48.120;11.562;2023-04-25T05:29:26;8.10;91.20
23499;DHT22;11926;48.120;11.562;2023-04-25T05:32:30;8.10;91.10
23499;DHT22;11926;48.120;11.562;2023-04-25T05:35:22;8.20;91.20
23499;DHT22;11926;48.120;11.562;2023-04-25T05:38:14;8.20;91.20
23499;DHT22;11926;48.120;11.562;2023-04-25T05:41:27;8.20;91.20
23499;DHT22;11926;48.120;11.562;2023-04-25T05:44:20;8.20;91.30
23499;DHT22;11926;48.120;11.562;2023-04-25T05:47:13;8.30;91.30
23499;DHT22;11926;48.120;11.562;2023-04-25T05:50:12;8.30;91.40
23499;DHT22;11926;48.120;11.562;2023-04-25T05:53:14;8.30;91.30
23499;DHT22;11926;48.120;11.562;2023-04-25T05:56:06;8.40;91.40
23499;DHT22;11926;48.120;11.562;2023-04-25T05:58:55;8.50;91.50
23499;DHT22;11926;48.120;11.562;2023-04-25T06:01:42;8.50;91.40
23499;DHT22;11926;48.120;11.562;2023-04-25T06:04:32;8.50;91.30
23499;DHT22;11926;48.120;11.562;2023-04-25T06:07:20;8.30;91.40
23499;DHT22;11926;48.120;11.562;2023-04-25T06:10:10;8.20;91.60
23499;DHT22;11926;48.120;11.562;2023-04-25T06:12:57;8.10;91.80
23499;DHT22;11926;48.120;11.562;2023-04-25T06:15:49;8.10;91.90
23499;DHT22;11926;48.120;11.562;2023-04-25T06:18:37;8.00;92.10
23499;DHT22;11926;48.120;11.562;2023-04-25T06:21:25;8.00;92.20
23499;DHT22;11926;48.120;11.562;2023-04-25T06:24:14;7.90;92.40
23499;DHT22;11926;48.120;11.562;2023-04-25T06:27:07;7.90;92.50
23499;DHT22;11926;48.120;11.562;2023-04-25T06:29:57;7.90;92.60
23499;DHT22;11926;48.120;11.562;2023-04-25T06:32:50;8.00;92.80
23499;DHT22;11926;48.120;11.562;2023-04-25T06:35:43;8.00;92.90
23499;DHT22;11926;48.120;11.562;2023-04-25T06:38:36;8.20;93.10
23499;DHT22;11926;48.120;11.562;2023-04-25T06:41:27;8.40;92.80
23499;DHT22;11926;48.120;11.562;2023-04-25T06:45:08;8.50;92.90
23499;DHT22;11926;48.120;11.562;2023-04-25T06:47:56;8.80;92.50
23499;DHT22;11926;48.120;11.562;2023-04-25T06:50:43;9.00;92.80
23499;DHT22;11926;48.120;11.562;2023-04-25T06:53:31;9.20;92.60
23499;DHT22;11926;48.120;11.562;2023-04-25T06:56:22;9.30;92.70
23499;DHT22;11926;48.120;11.562;2023-04-25T06:59:19;9.60;92.80
23499;DHT22;11926;48.120;11.562;2023-04-25T07:02:09;9.80;92.60
23499;DHT22;11926;48.120;11.562;2023-04-25T07:04:57;10.00;92.50
23499;DHT22;11926;48.120;11.562;2023-04-25T07:07:46;10.10;92.20
23499;DHT22;11926;48.120;11.562;2023-04-25T07:10:34;10.10;92.10
23499;DHT22;11926;48.120;11.562;2023-04-25T07:13:25;10.10;92.10
23499;DHT22;11926;48.120;11.562;2023-04-25T07:16:14;10.10;92.00
23499;DHT22;11926;48.120;11.562;2023-04-25T07:19:06;10.00;91.90
23499;DHT22;11926;48.120;11.562;2023-04-25T07:21:54;10.00;91.90
23499;DHT22;11926;48.120;11.562;2023-04-25T07:24:42;9.90;92.00
23499;DHT22;11926;48.120;11.562;2023-04-25T07:27:34;10.00;92.20
23499;DHT22;11926;48.120;11.562;2023-04-25T07:30:31;10.10;92.10
23499;DHT22;11926;48.120;11.562;2023-04-25T07:33:22;10.30;91.80
23499;DHT22;11926;48.120;11.562;2023-04-25T07:36:13;10.50;91.60
23499;DHT22;11926;48.120;11.562;2023-04-25T07:39:06;10.80;91.50
23499;DHT22;11926;48.120;11.562;2023-04-25T07:41:55;11.10;91.40
23499;DHT22;11926;48.120;11.562;2023-04-25T07:44:47;11.50;90.90
23499;DHT22;11926;48.120;11.562;2023-04-25T07:47:39;11.80;90.00
23499;DHT22;11926;48.120;11.562;2023-04-25T07:50:29;11.90;89.00
23499;DHT22;11926;48.120;11.562;2023-04-25T07:53:24;11.90;88.70
23499;DHT22;11926;48.120;11.562;2023-04-25T07:56:20;12.00;89.30
23499;DHT22;11926;48.120;11.562;2023-04-25T07:59:11;12.10;89.00
23499;DHT22;11926;48.120;11.562;2023-04-25T08:02:01;12.30;88.50
23499;DHT22;11926;48.120;11.562;2023-04-25T08:04:53;12.60;88.10
23499;DHT22;11926;48.120;11.562;2023-04-25T08:07:46;13.30;87.50
23499;DHT22;11926;48.120;11.562;2023-04-25T08:10:36;13.90;84.30
23499;DHT22;11926;48.120;11.562;2023-04-25T08:13:25;14.10;82.30
23499;DHT22;11926;48.120;11.562;2023-04-25T08:16:14;14.40;82.00
23499;DHT22;11926;48.120;11.562;2023-04-25T08:19:02;15.20;81.40
23499;DHT22;11926;48.120;11.562;2023-04-25T08:21:51;16.20;77.50
23499;DHT22;11926;48.120;11.562;2023-04-25T08:24:52;16.20;75.30
23499;DHT22;11926;48.120;11.562;2023-04-25T08:27:43;15.70;75.20
23499;DHT22;11926;48.120;11.562;2023-04-25T08:30:32;15.20;75.80
23499;DHT22;11926;48.120;11.562;2023-04-25T08:33:20;14.80;77.40
23499;DHT22;11926;48.120;11.562;2023-04-25T08:36:22;14.50;77.70
23499;DHT22;11926;48.120;11.562;2023-04-25T08:39:38;14.30;77.60
23499;DHT22;11926;48.120;11.562;2023-04-25T08:42:42;14.70;77.30
23499;DHT22;11926;48.120;11.562;2023-04-25T08:45:33;15.40;77.70
23499;DHT22;11926;48.120;11.562;2023-04-25T08:48:21;17.40;75.00
23499;DHT22;11926;48.120;11.562;2023-04-25T08:51:17;21.60;69.20
23499;DHT22;11926;48.120;11.562;2023-04-25T08:54:10;22.90;60.70
23499;DHT22;11926;48.120;11.562;2023-04-25T08:57:06;24.40;54.80
23499;DHT22;11926;48.120;11.562;2023-04-25T09:08:39;26.50;44.10
23499;DHT22;11926;48.120;11.562;2023-04-25T09:11:36;27.30;43.30
23499;DHT22;11926;48.120;11.562;2023-04-25T09:14:29;28.50;41.80
23499;DHT22;11926;48.120;11.562;2023-04-25T09:17:25;29.80;39.40
23499;DHT22;11926;48.120;11.562;2023-04-25T09:20:15;30.50;36.10
23499;DHT22;11926;48.120;11.562;2023-04-25T09:23:04;30.20;35.30
23499;DHT22;11926;48.120;11.562;2023-04-25T09:25:55;30.00;35.10
23499;DHT22;11926;48.120;11.562;2023-04-25T09:28:47;29.80;34.20
23499;DHT22;11926;48.120;11.562;2023-04-25T09:31:39;28.20;34.20
23499;DHT22;11926;48.120;11.562;2023-04-25T09:34:39;26.00;36.50
23499;DHT22;11926;48.120;11.562;2023-04-25T09:37:30;24.30;39.00
23499;DHT22;11926;48.120;11.562;2023-04-25T09:40:40;22.70;40.90
23499;DHT22;11926;48.120;11.562;2023-04-25T09:43:33;21.20;43.10
23499;DHT22;11926;48.120;11.562;2023-04-25T09:46:24;20.10;45.80
23499;DHT22;11926;48.120;11.562;2023-04-25T09:49:14;19.40;47.20
23499;DHT22;11926;48.120;11.562;2023-04-25T09:52:18;19.00;48.80
23499;DHT22;11926;48.120;11.562;2023-04-25T09:55:18;18.60;49.00
23499;DHT22;11926;48.120;11.562;2023-04-25T09:58:13;18.30;49.60
23499;DHT22;11926;48.120;11.562;2023-04-25T10:01:04;17.90;49.70
23499;DHT22;11926;48.120;11.562;2023-04-25T10:04:06;17.50;50.60
23499;DHT22;11926;48.120;11.562;2023-04-25T10:07:06;17.00;51.60
23499;DHT22;11926;48.120;11.562;2023-04-25T10:10:00;16.60;53.20
23499;DHT22;11926;48.120;11.562;2023-04-25T10:12:49;16.30;53.50
23499;DHT22;11926;48.120;11.562;2023-04-25T10:15:41;16.10;54.30
23499;DHT22;11926;48.120;11.562;2023-04-25T10:18:33;17.00;57.90
23499;DHT22;11926;48.120;11.562;2023-04-25T10:21:34;18.40;54.90
23499;DHT22;11926;48.120;11.562;2023-04-25T10:24:27;18.90;52.10
23499;DHT22;11926;48.120;11.562;2023-04-25T10:27:20;18.80;52.50
23499;DHT22;11926;48.120;11.562;2023-04-25T10:30:09;18.60;52.40
23499;DHT22;11926;48.120;11.562;2023-04-25T10:33:17;18.30;52.60
23499;DHT22;11926;48.120;11.562;2023-04-25T10:36:11;17.90;54.40
23499;DHT22;11926;48.120;11.562;2023-04-25T10:39:04;17.30;55.70
23499;DHT22;11926;48.120;11.562;2023-04-25T10:41:56;16.50;57.00
23499;DHT22;11926;48.120;11.562;2023-04-25T10:45:01;15.70;56.90
23499;DHT22;11926;48.120;11.562;2023-04-25T10:47:50;15.00;58.60
23499;DHT22;11926;48.120;11.562;2023-04-25T10:50:39;14.50;59.70
23499;DHT22;11926;48.120;11.562;2023-04-25T10:53:33;14.10;62.10
23499;DHT22;11926;48.120;11.562;2023-04-25T10:56:21;13.80;63.90
23499;DHT22;11926;48.120;11.562;2023-04-25T10:59:12;13.60;64.90
23499;DHT22;11926;48.120;11.562;2023-04-25T11:02:11;13.60;66.00
23499;DHT22;11926;48.120;11.562;2023-04-25T11:05:00;13.50;67.30
23499;DHT22;11926;48.120;11.562;2023-04-25T11:07:54;13.30;68.30
23499;DHT22;11926;48.120;11.562;2023-04-25T12:02:24;13.00;71.40
23499;DHT22;11926;48.120;11.562;2023-04-25T12:05:14;12.90;72.80
23499;DHT22;11926;48.120;11.562;2023-04-25T12:08:22;12.70;73.30
23499;DHT22;11926;48.120;11.562;2023-04-25T12:11:22;12.60;74.00
23499;DHT22;11926;48.120;11.562;2023-04-25T12:14:19;12.60;74.20
23499;DHT22;11926;48.120;11.562;2023-04-25T12:17:09;12.60;74.20
23499;DHT22;11926;48.120;11.562;2023-04-25T12:19:58;12.50;74.40
23499;DHT22;11926;48.120;11.562;2023-04-25T12:22:48;12.40;74.70
23499;DHT22;11926;48.120;11.562;2023-04-25T12:25:37;12.50;74.60
23499;DHT22;11926;48.120;11.562;2023-04-25T12:28:29;12.30;74.00
23499;DHT22;11926;48.120;11.562;2023-04-25T12:31:20;12.10;74.40
23499;DHT22;11926;48.120;11.562;2023-04-25T12:34:10;12.00;75.50
23499;DHT22;11926;48.120;11.562;2023-04-25T12:36:57;12.00;76.20
23499;DHT22;11926;48.120;11.562;2023-04-25T12:39:51;12.00;76.10
23499;DHT22;11926;48.120;11.562;2023-04-25T12:42:43;12.00;76.50
23499;DHT22;11926;48.120;11.562;2023-04-25T12:45:38;12.20;76.90
23499;DHT22;11926;48.120;11.562;2023-04-25T12:48:26;12.20;75.80
23499;DHT22;11926;48.120;11.562;2023-04-25T12:51:15;12.20;76.40
23499;DHT22;11926;48.120;11.562;2023-04-25T12:54:10;12.30;76.30
23499;DHT22;11926;48.120;11.562;2023-04-25T12:56:57;12.20;76.70
23499;DHT22;11926;48.120;11.562;2023-04-25T12:59:45;12.20;76.90
23499;DHT22;11926;48.120;11.562;2023-04-25T13:02:33;12.10;77.20
23499;DHT22;11926;48.120;11.562;2023-04-25T13:05:21;12.10;77.40
23499;DHT22;11926;48.120;11.562;2023-04-25T13:08:08;11.90;77.70
23499;DHT22;11926;48.120;11.562;2023-04-25T13:10:56;11.90;78.30
23499;DHT22;11926;48.120;11.562;2023-04-25T13:13:44;11.80;78.70
23499;DHT22;11926;48.120;11.562;2023-04-25T13:16:32;11.70;78.90
23499;DHT22;11926;48.120;11.562;2023-04-25T13:19:20;11.70;79.50
23499;DHT22;11926;48.120;11.562;2023-04-25T13:22:11;11.70;79.70
23499;DHT22;11926;48.120;11.562;2023-04-25T13:25:06;11.70;80.00
23499;DHT22;11926;48.120;11.562;2023-04-25T13:27:54;11.60;80.10
23499;DHT22;11926;48.120;11.562;2023-04-25T13:30:45;11.60;80.20
23499;DHT22;11926;48.120;11.562;2023-04-25T13:33:34;11.50;80.90
23499;DHT22;11926;48.120;11.562;2023-04-25T13:36:22;11.50;81.20
23499;DHT22;11926;48.120;11.562;2023-04-25T13:39:10;11.50;81.40
23499;DHT22;11926;48.120;11.562;2023-04-25T13:41:58;11.50;81.20
23499;DHT22;11926;48.120;11.562;2023-04-25T13:44:50;11.30;81.50
23499;DHT22;11926;48.120;11.562;2023-04-25T13:47:38;11.20;82.40
23499;DHT22;11926;48.120;11.562;2023-04-25T13:50:25;11.10;83.40
23499;DHT22;11926;48.120;11.562;2023-04-25T13:53:17;11.10;83.70
23499;DHT22;11926;48.120;11.562;2023-04-25T14:21:29;10.70;84.10
23499;DHT22;11926;48.120;11.562;2023-04-25T14:24:18;10.70;85.70
23499;DHT22;11926;48.120;11.562;2023-04-25T14:27:07;10.70;86.70
23499;DHT22;11926;48.120;11.562;2023-04-25T14:29:56;10.90;87.00
23499;DHT22;11926;48.120;11.562;2023-04-25T14:32:44;11.10;86.70
23499;DHT22;11926;48.120;11.562;2023-04-25T14:35:32;11.20;86.90
23499;DHT22;11926;48.120;11.562;2023-04-25T14:38:20;11.40;86.10
23499;DHT22;11926;48.120;11.562;2023-04-25T14:41:09;11.60;86.60
23499;DHT22;11926;48.120;11.562;2023-04-25T14:44:04;11.70;86.10
23499;DHT22;11926;48.120;11.562;2023-04-25T14:46:52;11.80;85.70
23499;DHT22;11926;48.120;11.562;2023-04-25T14:49:40;11.80;86.00
23499;DHT22;11926;48.120;11.562;2023-04-25T14:52:28;11.90;85.30
23499;DHT22;11926;48.120;11.562;2023-04-25T14:55:16;11.90;84.60
23499;DHT22;11926;48.120;11.562;2023-04-25T14:58:04;11.90;85.00
23499;DHT22;11926;48.120;11.562;2023-04-25T15:00:54;11.90;84.20
23499;DHT22;11926;48.120;11.562;2023-04-25T15:03:41;11.80;84.50
23499;DHT22;11926;48.120;11.562;2023-04-25T15:06:30;11.70;86.00
23499;DHT22;11926;48.120;11.562;2023-04-25T15:09:17;11.70;85.40
23499;DHT22;11926;48.120;11.562;2023-04-25T15:12:05;11.70;84.80
23499;DHT22;11926;48.120;11.562;2023-04-25T15:14:58;11.60;85.00
23499;DHT22;11926;48.120;11.562;2023-04-25T15:17:48;11.50;84.90
23499;DHT22;11926;48.120;11.562;2023-04-25T15:20:39;11.50;85.10
23499;DHT22;11926;48.120;11.562;2023-04-25T15:23:27;11.50;85.60
23499;DHT22;11926;48.120;11.562;2023-04-25T15:29:04;11.50;85.20
23499;DHT22;11926;48.120;11.562;2023-04-25T15:31:52;11.60;86.10
23499;DHT22;11926;48.120;11.562;2023-04-25T15:34:42;11.60;85.60
23499;DHT22;11926;48.120;11.562;2023-04-25T15:37:29;11.60;85.40
23499;DHT22;11926;48.120;11.562;2023-04-25T15:40:18;11.60;85.60
23499;DHT22;11926;48.120;11.562;2023-04-25T15:43:06;11.60;85.10
23499;DHT22;11926;48.120;11.562;2023-04-25T15:46:01;11.60;85.20
23499;DHT22;11926;48.120;11.562;2023-04-25T15:48:54;11.70;84.70
23499;DHT22;11926;48.120;11.562;2023-04-25T15:51:43;11.70;84.70
23499;DHT22;11926;48.120;11.562;2023-04-25T15:54:33;11.70;84.60
23499;DHT22;11926;48.120;11.562;2023-04-25T15:57:26;11.60;84.80
23499;DHT22;11926;48.120;11.562;2023-04-25T16:00:17;11.40;84.80
23499;DHT22;11926;48.120;11.562;2023-04-25T16:03:08;11.30;85.20
23499;DHT22;11926;48.120;11.562;2023-04-25T16:05:57;11.30;85.20
23499;DHT22;11926;48.120;11.562;2023-04-25T16:08:46;11.30;85.60
23499;DHT22;11926;48.120;11.562;2023-04-25T16:11:34;11.20;85.60
23499;DHT22;11926;48.120;11.562;2023-04-25T16:14:25;11.10;85.40
23499;DHT22;11926;48.120;11.562;2023-04-25T16:17:20;11.10;85.40
23499;DHT22;11926;48.120;11.562;2023-04-25T16:20:17;10.90;85.10
23499;DHT22;11926;48.120;11.562;2023-04-25T16:23:13;10.80;85.70
23499;DHT22;11926;48.120;11.562;2023-04-25T16:26:08;10.70;85.70
23499;DHT22;11926;48.120;11.562;2023-04-25T16:29:02;10.70;86.00
23499;DHT22;11926;48.120;11.562;2023-04-25T16:31:52;10.60;86.20
23499;DHT22;11926;48.120;11.562;2023-04-25T16:34:40;10.60;86.40
23499;DHT22;11926;48.120;11.562;2023-04-25T16:37:28;10.60;86.60
23499;DHT22;11926;48.120;11.562;2023-04-25T16:40:16;10.50;87.00
23499;DHT22;11926;48.120;11.562;2023-04-25T16:43:05;10.50;86.80
23499;DHT22;11926;48.120;11.562;2023-04-25T16:45:53;10.50;87.20
23499;DHT22;11926;48.120;11.562;2023-04-25T16:48:41;10.50;87.50
23499;DHT22;11926;48.120;11.562;2023-04-25T16:51:29;10.50;87.60
23499;DHT22;11926;48.120;11.562;2023-04-25T16:54:17;10.60;87.60
23499;DHT22;11926;48.120;11.562;2023-04-25T16:57:05;10.60;87.50
23499;DHT22;11926;48.120;11.562;2023-04-25T16:59:58;10.50;87.20
23499;DHT22;11926;48.120;11.562;2023-04-25T17:02:46;10.50;87.60
23499;DHT22;11926;48.120;11.562;2023-04-25T17:05:34;10.40;87.60
23499;DHT22;11926;48.120;11.562;2023-04-25T17:08:22;10.30;88.10
23499;DHT22;11926;48.120;11.562;2023-04-25T17:11:10;10.30;88.00
23499;DHT22;11926;48.120;11.562;2023-04-25T17:13:58;10.20;88.50
23499;DHT22;11926;48.120;11.562;2023-04-25T17:16:47;10.20;88.70
23499;DHT22;11926;48.120;11.562;2023-04-25T17:19:36;10.20;89.00
23499;DHT22;11926;48.120;11.562;2023-04-25T17:22:23;10.20;88.90
23499;DHT22;11926;48.120;11.562;2023-04-25T17:25:11;10.20;89.00
23499;DHT22;11926;48.120;11.562;2023-04-25T17:27:59;10.20;89.30
23499;DHT22;11926;48.120;11.562;2023-04-25T17:30:46;10.10;89.20
23499;DHT22;11926;48.120;11.562;2023-04-25T17:33:36;10.20;89.50
23499;DHT22;11926;48.120;11.562;2023-04-25T17:36:24;10.10;89.20
23499;DHT22;11926;48.120;11.562;2023-04-25T17:39:12;10.10;89.20
23499;DHT22;11926;48.120;11.562;2023-04-25T17:42:02;10.10;89.30
23499;DHT22;11926;48.120;11.562;2023-04-25T17:44:51;10.10;89.40
23499;DHT22;11926;48.120;11.562;2023-04-25T17:47:41;10.00;89.40
23499;DHT22;11926;48.120;11.562;2023-04-25T17:50:31;10.00;89.40
23499;DHT22;11926;48.120;11.562;2023-04-25T17:53:19;9.90;89.40
23499;DHT22;11926;48.120;11.562;2023-04-25T17:56:06;9.90;89.80
23499;DHT22;11926;48.120;11.562;2023-04-25T17:59:11;9.90;90.00
23499;DHT22;11926;48.120;11.562;2023-04-25T18:02:02;9.90;90.00
23499;DHT22;11926;48.120;11.562;2023-04-25T18:04:50;9.90;90.00
23499;DHT22;11926;48.120;11.562;2023-04-25T18:07:39;9.90;90.00
23499;DHT22;11926;48.120;11.562;2023-04-25T18:10:27;9.80;90.00
23499;DHT22;11926;48.120;11.562;2023-04-25T18:13:15;9.80;90.00
23499;DHT22;11926;48.120;11.562;2023-04-25T18:16:03;9.70;90.10
23499;DHT22;11926;48.120;11.562;2023-04-25T18:18:51;9.70;90.70
23499;DHT22;11926;48.120;11.562;2023-04-25T18:21:39;9.70;90.10
23499;DHT22;11926;48.120;11.562;2023-04-25T18:24:30;9.50;89.80
23499;DHT22;11926;48.120;11.562;2023-04-25T18:27:18;9.30;90.00
23499;DHT22;11926;48.120;11.562;2023-04-25T18:30:07;9.20;90.20
23499;DHT22;11926;48.120;11.562;2023-04-25T18:32:56;9.10;90.40
23499;DHT22;11926;48.120;11.562;2023-04-25T18:35:44;9.00;90.60
23499;DHT22;11926;48.120;11.562;2023-04-25T18:38:44;8.90;90.70
23499;DHT22;11926;48.120;11.562;2023-04-25T18:41:37;8.90;90.90
23499;DHT22;11926;48.120;11.562;2023-04-25T18:44:43;8.80;91.00
23499;DHT22;11926;48.120;11.562;2023-04-25T18:47:31;8.80;91.00
23499;DHT22;11926;48.120;11.562;2023-04-25T18:50:19;8.70;91.20
23499;DHT22;11926;48.120;11.562;2023-04-25T18:53:08;8.60;91.30
23499;DHT22;11926;48.120;11.562;2023-04-25T18:55:56;8.60;91.40
23499;DHT22;11926;48.120;11.562;2023-04-25T18:58:45;8.60;91.50
23499;DHT22;11926;48.120;11.562;2023-04-25T19:01:34;8.60;91.70
23499;DHT22;11926;48.120;11.562;2023-04-25T19:04:21;8.60;91.80
23499;DHT22;11926;48.120;11.562;2023-04-25T19:07:09;8.60;91.90
23499;DHT22;11926;48.120;11.562;2023-04-25T19:09:57;8.60;92.00
23499;DHT22;11926;48.120;11.562;2023-04-25T19:12:45;8.60;92.10
23499;DHT22;11926;48.120;11.562;2023-04-25T19:15:36;8.60;92.10
23499;DHT22;11926;48.120;11.562;2023-04-25T19:18:24;8.60;92.20
23499;DHT22;11926;48.120;11.562;2023-04-25T19:21:12;8.60;92.20
23499;DHT22;11926;48.120;11.562;2023-04-25T19:24:00;8.60;92.30
23499;DHT22;11926;48.120;11.562;2023-04-25T19:26:50;8.60;92.30
23499;DHT22;11926;48.120;11.562;2023-04-25T19:29:37;8.60;92.40